sensor_id;sensor_type;location;lat;lon;timestamp;pressure;altitude;pressure_sealevel;temperature;humidity
10806;BME280;5455;53.224;6.000;2023-04-27T00:01:42;102116.84;;;3.08;100.00
10806;BME280;5455;53.224;6.000;2023-04-27T00:04:09;102116.03;;;3.07;100.00
10806;BME280;5455;53.224;6.000;2023-04-27T00:06:36;102126.91;;;3.07;100.00
10806;BME280;5455;53.224;6.000;2023-04-27T00:09:03;102124.19;;;3.07;100.00
10806;BME280;5455;53.224;6.000;2023-04-27T00:11:30;102128.03;;;3.06;100.00
10806;BME280;5455;53.224;6.000;2023-04-27T00:13:57;102116.56;;;3.04;100.00
10806;BME280;5455;53.224;6.000;2023-04-27T00:16:25;102118.19;;;3.10;100.00
10806;BME280;5455;53.224;6.000;2023-04-27T00:18:52;102117.63;;;3.13;100.00
10806;BME280;5455;53.224;6.000;2023-04-27T00:21:19;102120.63;;;3.17;100.00
10806;BME280;5455;53.224;6.000;2023-04-27T00:23:46;102115.69;;;3.19;100.00
10806;BME280;5455;53.224;6.000;2023-04-27T00:26:13;102126.88;;;3.22;100.00
10806;BME280;5455;53.224;6.000;2023-04-27T00:28:42;102120.84;;;3.25;100.00
10806;BME280;5455;53.224;6.000;2023-04-27T00:31:09;102123.88;;;3.24;100.00
10806;BME280;5455;53.224;6.000;2023-04-27T00:33:36;102118.69;;;3.22;100.00
10806;BME280;5455;53.224;6.000;2023-04-27T00:36:04;102124.66;;;3.29;100.00
10806;BME280;5455;53.224;6.000;2023-04-27T00:38:31;102122.44;;;3.42;100.00
10806;BME280;5455;53.224;6.000;2023-04-27T00:41:03;102125.91;;;3.52;100.00
10806;BME280;5455;53.224;6.000;2023-04-27T00:43:31;102122.88;;;3.59;100.00
10806;BME280;5455;53.224;6.000;2023-04-27T00:45:59;102123.97;;;3.58;100.00
10806;BME280;5455;53.224;6.000;2023-04-27T00:48:26;102125.09;;;3.52;100.00
10806;BME280;5455;53.224;6.000;2023-04-27T00:50:54;102119.41;;;3.48;100.00
10806;BME280;5455;53.224;6.000;2023-04-27T00:53:21;102120.25;;;3.44;100.00
10806;BME280;5455;53.224;6.000;2023-04-27T00:55:48;102117.00;;;3.37;100.00
10806;BME280;5455;53.224;6.000;2023-04-27T00:58:15;102107.75;;;3.27;100.00
10806;BME280;5455;53.224;6.000;2023-04-27T01:00:42;102114.03;;;3.28;100.00
10806;BME280;5455;53.224;6.000;2023-04-27T01:03:09;102111.06;;;3.19;100.00
10806;BME280;5455;53.224;6.000;2023-04-27T01:05:38;102106.75;;;3.08;100.00
10806;BME280;5455;53.224;6.000;2023-04-27T01:08:06;102106.53;;;3.00;100.00
10806;BME280;5455;53.224;6.000;2023-04-27T01:10:33;102100.28;;;2.94;100.00
10806;BME280;5455;53.224;6.000;2023-04-27T01:13:01;102107.06;;;2.92;100.00
10806;BME280;5455;53.224;6.000;2023-04-27T01:15:29;102106.00;;;2.88;100.00
10806;BME280;5455;53.224;6.000;2023-04-27T01:17:59;102102.47;;;2.87;100.00
10806;BME280;5455;53.224;6.000;2023-04-27T01:20:28;102094.03;;;2.84;100.00
10806;BME280;5455;53.224;6.000;2023-04-27T01:22:56;102095.38;;;2.86;100.00
10806;BME280;5455;53.224;6.000;2023-04-27T01:25:23;102099.22;;;2.85;100.00
10806;BME280;5455;53.224;6.000;2023-04-27T01:27:50;102097.56;;;2.89;100.00
10806;BME280;5455;53.224;6.000;2023-04-27T01:30:17;102098.34;;;2.95;100.00
10806;BME280;5455;53.224;6.000;2023-04-27T01:32:44;102092.06;;;3.04;100.00
10806;BME280;5455;53.224;6.000;2023-04-27T01:35:11;102099.97;;;3.06;100.00
10806;BME280;5455;53.224;6.000;2023-04-27T01:37:38;102101.56;;;3.07;100.00
10806;BME280;5455;53.224;6.000;2023-04-27T01:40:06;102096.94;;;3.12;100.00
10806;BME280;5455;53.224;6.000;2023-04-27T01:42:33;102102.38;;;3.17;100.00
10806;BME280;5455;53.224;6.000;2023-04-27T01:45:00;102093.91;;;3.19;100.00
10806;BME280;5455;53.224;6.000;2023-04-27T01:47:30;102102.56;;;3.31;100.00
10806;BME280;5455;53.224;6.000;2023-04-27T01:49:57;102101.44;;;3.37;100.00
10806;BME280;5455;53.224;6.000;2023-04-27T01:52:24;102104.44;;;3.41;100.00
10806;BME280;5455;53.224;6.000;2023-04-27T01:54:51;102092.97;;;3.44;100.00
10806;BME280;5455;53.224;6.000;2023-04-27T01:57:20;102102.22;;;3.48;100.00
10806;BME280;5455;53.224;6.000;2023-04-27T01:59:47;102109.03;;;3.50;100.00
10806;BME280;5455;53.224;6.000;2023-04-27T02:02:14;102104.97;;;3.48;100.00
10806;BME280;5455;53.224;6.000;2023-04-27T02:04:41;102106.03;;;3.47;100.00
10806;BME280;5455;53.224;6.000;2023-04-27T02:07:09;102108.50;;;3.48;100.00
10806;BME280;5455;53.224;6.000;2023-04-27T02:09:36;102107.38;;;3.49;100.00
10806;BME280;5455;53.224;6.000;2023-04-27T02:12:03;102109.59;;;3.47;100.00
10806;BME280;5455;53.224;6.000;2023-04-27T02:14:31;102109.84;;;3.51;100.00
10806;BME280;5455;53.224;6.000;2023-04-27T02:16:58;102106.84;;;3.52;100.00
10806;BME280;5455;53.224;6.000;2023-04-27T02:19:24;102106.00;;;3.57;100.00
10806;BME280;5455;53.224;6.000;2023-04-27T02:21:51;102108.16;;;3.60;100.00
10806;BME280;5455;53.224;6.000;2023-04-27T02:24:19;102106.50;;;3.64;100.00
10806;BME280;5455;53.224;6.000;2023-04-27T02:26:46;102108.09;;;3.70;100.00
10806;BME280;5455;53.224;6.000;2023-04-27T02:29:13;102106.16;;;3.75;100.00
10806;BME280;5455;53.224;6.000;2023-04-27T02:31:41;102099.59;;;3.81;100.00
10806;BME280;5455;53.224;6.000;2023-04-27T02:34:12;102106.09;;;3.85;100.00
10806;BME280;5455;53.224;6.000;2023-04-27T02:36:38;102101.44;;;3.86;100.00
10806;BME280;5455;53.224;6.000;2023-04-27T02:39:05;102093.00;;;3.87;100.00
10806;BME280;5455;53.224;6.000;2023-04-27T02:41:37;102100.56;;;3.96;100.00
10806;BME280;5455;53.224;6.000;2023-04-27T02:44:04;102094.78;;;4.02;100.00
10806;BME280;5455;53.224;6.000;2023-04-27T02:46:31;102088.19;;;4.08;100.00
10806;BME280;5455;53.224;6.000;2023-04-27T02:48:58;102083.25;;;4.10;100.00
10806;BME280;5455;53.224;6.000;2023-04-27T02:51:24;102077.81;;;4.10;100.00
10806;BME280;5455;53.224;6.000;2023-04-27T02:53:52;102071.47;;;4.15;100.00
10806;BME280;5455;53.224;6.000;2023-04-27T02:56:20;102073.38;;;4.19;100.00
10806;BME280;5455;53.224;6.000;2023-04-27T02:58:47;102071.69;;;4.23;100.00
10806;BME280;5455;53.224;6.000;2023-04-27T03:01:14;102067.56;;;4.26;100.00
10806;BME280;5455;53.224;6.000;2023-04-27T03:03:46;102079.31;;;4.26;100.00
10806;BME280;5455;53.224;6.000;2023-04-27T03:06:13;102078.00;;;4.19;100.00
10806;BME280;5455;53.224;6.000;2023-04-27T03:08:41;102085.41;;;4.13;100.00
10806;BME280;5455;53.224;6.000;2023-04-27T03:11:08;102087.91;;;4.10;100.00
10806;BME280;5455;53.224;6.000;2023-04-27T03:13:35;102093.97;;;4.02;100.00
10806;BME280;5455;53.224;6.000;2023-04-27T03:16:09;102089.41;;;3.92;100.00
10806;BME280;5455;53.224;6.000;2023-04-27T03:18:38;102082.91;;;3.83;100.00
10806;BME280;5455;53.224;6.000;2023-04-27T03:21:10;102093.88;;;3.73;100.00
10806;BME280;5455;53.224;6.000;2023-04-27T03:23:38;102086.84;;;3.67;100.00
10806;BME280;5455;53.224;6.000;2023-04-27T03:26:10;102084.66;;;3.69;100.00
10806;BME280;5455;53.224;6.000;2023-04-27T03:28:38;102081.13;;;3.68;100.00
10806;BME280;5455;53.224;6.000;2023-04-27T03:31:06;102086.28;;;3.70;100.00
10806;BME280;5455;53.224;6.000;2023-04-27T03:33:33;102075.13;;;3.66;100.00
10806;BME280;5455;53.224;6.000;2023-04-27T03:36:03;102079.25;;;3.59;100.00
10806;BME280;5455;53.224;6.000;2023-04-27T03:38:31;102071.94;;;3.49;100.00
10806;BME280;5455;53.224;6.000;2023-04-27T03:40:58;102075.53;;;3.40;100.00
10806;BME280;5455;53.224;6.000;2023-04-27T03:43:25;102082.16;;;3.28;100.00
10806;BME280;5455;53.224;6.000;2023-04-27T03:45:53;102081.66;;;3.21;100.00
10806;BME280;5455;53.224;6.000;2023-04-27T03:48:20;102086.03;;;3.17;100.00
10806;BME280;5455;53.224;6.000;2023-04-27T03:50:49;102082.22;;;3.13;100.00
10806;BME280;5455;53.224;6.000;2023-04-27T03:53:16;102085.50;;;3.10;100.00
10806;BME280;5455;53.224;6.000;2023-04-27T03:55:43;102089.34;;;3.09;100.00
10806;BME280;5455;53.224;6.000;2023-04-27T03:58:11;102089.59;;;3.08;100.00
10806;BME280;5455;53.224;6.000;2023-04-27T04:00:50;102085.78;;;3.04;100.00
10806;BME280;5455;53.224;6.000;2023-04-27T04:03:18;102080.09;;;3.00;100.00
10806;BME280;5455;53.224;6.000;2023-04-27T04:05:45;102071.94;;;2.95;100.00
10806;BME280;5455;53.224;6.000;2023-04-27T04:08:13;102077.41;;;2.90;100.00
10806;BME280;5455;53.224;6.000;2023-04-27T04:10:40;102083.94;;;2.89;100.00
10806;BME280;5455;53.224;6.000;2023-04-27T04:13:08;102086.13;;;2.87;100.00
10806;BME280;5455;53.224;6.000;2023-04-27T04:15:36;102078.47;;;2.89;100.00
10806;BME280;5455;53.224;6.000;2023-04-27T04:18:03;102079.03;;;2.86;100.00
10806;BME280;5455;53.224;6.000;2023-04-27T04:20:30;102077.13;;;2.87;100.00
10806;BME280;5455;53.224;6.000;2023-04-27T04:22:57;102080.13;;;2.90;100.00
10806;BME280;5455;53.224;6.000;2023-04-27T04:25:25;102085.00;;;2.98;100.00
10806;BME280;5455;53.224;6.000;2023-04-27T04:27:52;102089.38;;;2.99;100.00
10806;BME280;5455;53.224;6.000;2023-04-27T04:30:20;102089.88;;;3.06;100.00
10806;BME280;5455;53.224;6.000;2023-04-27T04:32:49;102085.50;;;3.10;100.00
10806;BME280;5455;53.224;6.000;2023-04-27T04:35:16;102091.47;;;3.17;100.00
10806;BME280;5455;53.224;6.000;2023-04-27T04:37:45;102106.19;;;3.21;100.00
10806;BME280;5455;53.224;6.000;2023-04-27T04:40:12;102102.63;;;3.21;100.00
10806;BME280;5455;53.224;6.000;2023-04-27T04:42:39;102105.63;;;3.19;100.00
10806;BME280;5455;53.224;6.000;2023-04-27T04:45:08;102105.38;;;3.21;100.00
10806;BME280;5455;53.224;6.000;2023-04-27T04:47:35;102113.25;;;3.22;100.00
10806;BME280;5455;53.224;6.000;2023-04-27T04:50:02;102108.66;;;3.18;100.00
10806;BME280;5455;53.224;6.000;2023-04-27T04:52:30;102117.38;;;3.15;100.00
10806;BME280;5455;53.224;6.000;2023-04-27T04:54:57;102111.38;;;3.13;100.00
10806;BME280;5455;53.224;6.000;2023-04-27T04:57:26;102122.03;;;3.09;100.00
10806;BME280;5455;53.224;6.000;2023-04-27T04:59:53;102121.75;;;3.06;100.00
10806;BME280;5455;53.224;6.000;2023-04-27T05:02:20;102124.50;;;3.06;100.00
10806;BME280;5455;53.224;6.000;2023-04-27T05:04:48;102122.03;;;3.04;100.00
10806;BME280;5455;53.224;6.000;2023-04-27T05:07:18;102126.38;;;3.05;100.00
10806;BME280;5455;53.224;6.000;2023-04-27T05:09:51;102123.91;;;3.14;100.00
10806;BME280;5455;53.224;6.000;2023-04-27T05:12:18;102125.78;;;3.23;100.00
10806;BME280;5455;53.224;6.000;2023-04-27T05:14:45;102123.03;;;3.28;100.00
10806;BME280;5455;53.224;6.000;2023-04-27T05:17:12;102132.25;;;3.38;100.00
10806;BME280;5455;53.224;6.000;2023-04-27T05:19:39;102125.97;;;3.42;100.00
10806;BME280;5455;53.224;6.000;2023-04-27T05:22:06;102136.03;;;3.47;100.00
10806;BME280;5455;53.224;6.000;2023-04-27T05:24:34;102134.88;;;3.58;100.00
10806;BME280;5455;53.224;6.000;2023-04-27T05:27:01;102140.28;;;3.68;100.00
10806;BME280;5455;53.224;6.000;2023-04-27T05:29:29;102139.16;;;3.74;100.00
10806;BME280;5455;53.224;6.000;2023-04-27T05:31:56;102144.56;;;3.84;100.00
10806;BME280;5455;53.224;6.000;2023-04-27T05:34:24;102137.94;;;3.95;100.00
10806;BME280;5455;53.224;6.000;2023-04-27T05:36:51;102137.06;;;4.05;100.00
10806;BME280;5455;53.224;6.000;2023-04-27T05:39:18;102127.44;;;4.12;100.00
10806;BME280;5455;53.224;6.000;2023-04-27T05:41:45;102131.19;;;4.26;100.00
10806;BME280;5455;53.224;6.000;2023-04-27T05:44:13;102137.66;;;4.35;100.00
10806;BME280;5455;53.224;6.000;2023-04-27T05:46:40;102134.00;;;4.45;100.00
10806;BME280;5455;53.224;6.000;2023-04-27T05:49:08;102141.81;;;4.57;100.00
10806;BME280;5455;53.224;6.000;2023-04-27T05:51:36;102141.75;;;4.67;100.00
10806;BME280;5455;53.224;6.000;2023-04-27T05:54:04;102134.53;;;4.76;100.00
10806;BME280;5455;53.224;6.000;2023-04-27T05:56:32;102150.50;;;4.92;100.00
10806;BME280;5455;53.224;6.000;2023-04-27T05:58:59;102150.97;;;4.99;100.00
10806;BME280;5455;53.224;6.000;2023-04-27T06:01:28;102151.16;;;5.08;100.00
10806;BME280;5455;53.224;6.000;2023-04-27T06:03:55;102142.03;;;5.18;100.00
10806;BME280;5455;53.224;6.000;2023-04-27T06:06:30;102149.81;;;5.29;100.00
10806;BME280;5455;53.224;6.000;2023-04-27T06:08:57;102145.03;;;5.40;100.00
10806;BME280;5455;53.224;6.000;2023-04-27T06:11:24;102146.31;;;5.47;100.00
10806;BME280;5455;53.224;6.000;2023-04-27T06:13:53;102148.63;;;5.59;100.00
10806;BME280;5455;53.224;6.000;2023-04-27T06:16:20;102151.72;;;5.71;100.00
10806;BME280;5455;53.224;6.000;2023-04-27T06:18:49;102146.94;;;5.82;100.00
10806;BME280;5455;53.224;6.000;2023-04-27T06:21:16;102150.09;;;5.94;100.00
10806;BME280;5455;53.224;6.000;2023-04-27T06:23:43;102147.50;;;6.02;100.00
10806;BME280;5455;53.224;6.000;2023-04-27T06:26:10;102141.06;;;6.12;100.00
10806;BME280;5455;53.224;6.000;2023-04-27T06:28:37;102151.19;;;6.30;100.00
10806;BME280;5455;53.224;6.000;2023-04-27T06:31:04;102146.66;;;6.39;100.00
10806;BME280;5455;53.224;6.000;2023-04-27T06:33:32;102149.81;;;6.46;100.00
10806;BME280;5455;53.224;6.000;2023-04-27T06:36:00;102153.41;;;6.60;100.00
10806;BME280;5455;53.224;6.000;2023-04-27T06:38:27;102147.84;;;6.65;100.00
10806;BME280;5455;53.224;6.000;2023-04-27T06:40:54;102143.09;;;6.71;100.00
10806;BME280;5455;53.224;6.000;2023-04-27T06:43:22;102140.06;;;6.73;100.00
10806;BME280;5455;53.224;6.000;2023-04-27T06:45:49;102147.06;;;6.79;100.00
10806;BME280;5455;53.224;6.000;2023-04-27T06:48:16;102146.03;;;6.88;100.00
10806;BME280;5455;53.224;6.000;2023-04-27T06:50:43;102145.66;;;6.95;100.00
10806;BME280;5455;53.224;6.000;2023-04-27T06:53:10;102145.75;;;7.03;100.00
10806;BME280;5455;53.224;6.000;2023-04-27T06:55:38;102134.72;;;7.08;100.00
10806;BME280;5455;53.224;6.000;2023-04-27T06:58:10;102145.06;;;7.25;100.00
10806;BME280;5455;53.224;6.000;2023-04-27T07:00:37;102141.94;;;7.32;100.00
10806;BME280;5455;53.224;6.000;2023-04-27T07:03:04;102138.78;;;7.38;100.00
10806;BME280;5455;53.224;6.000;2023-04-27T07:05:33;102135.81;;;7.48;100.00
10806;BME280;5455;53.224;6.000;2023-04-27T07:07:59;102129.91;;;7.55;100.00
10806;BME280;5455;53.224;6.000;2023-04-27T07:10:32;102121.69;;;7.55;100.00
10806;BME280;5455;53.224;6.000;2023-04-27T07:12:59;102129.38;;;7.66;100.00
10806;BME280;5455;53.224;6.000;2023-04-27T07:15:27;102139.66;;;7.74;100.00
10806;BME280;5455;53.224;6.000;2023-04-27T07:17:56;102121.25;;;7.75;100.00
10806;BME280;5455;53.224;6.000;2023-04-27T07:20:23;102120.59;;;7.78;100.00
10806;BME280;5455;53.224;6.000;2023-04-27T07:22:50;102127.31;;;7.86;100.00
10806;BME280;5455;53.224;6.000;2023-04-27T07:25:18;102133.47;;;8.05;100.00
10806;BME280;5455;53.224;6.000;2023-04-27T07:27:45;102137.78;;;8.19;100.00
10806;BME280;5455;53.224;6.000;2023-04-27T07:30:12;102137.88;;;8.28;100.00
10806;BME280;5455;53.224;6.000;2023-04-27T07:32:40;102136.94;;;8.32;100.00
10806;BME280;5455;53.224;6.000;2023-04-27T07:35:08;102137.44;;;8.35;100.00
10806;BME280;5455;53.224;6.000;2023-04-27T07:37:35;102134.56;;;8.40;100.00
10806;BME280;5455;53.224;6.000;2023-04-27T07:40:06;102146.44;;;8.49;100.00
10806;BME280;5455;53.224;6.000;2023-04-27T07:42:43;102152.84;;;8.44;100.00
10806;BME280;5455;53.224;6.000;2023-04-27T07:45:12;102148.56;;;8.52;100.00
10806;BME280;5455;53.224;6.000;2023-04-27T07:47:39;102133.19;;;8.51;100.00
10806;BME280;5455;53.224;6.000;2023-04-27T07:50:09;102130.66;;;8.63;100.00
10806;BME280;5455;53.224;6.000;2023-04-27T07:52:36;102130.72;;;8.71;100.00
10806;BME280;5455;53.224;6.000;2023-04-27T07:55:03;102145.44;;;8.98;100.00
10806;BME280;5455;53.224;6.000;2023-04-27T07:57:31;102150.31;;;9.01;100.00
10806;BME280;5455;53.224;6.000;2023-04-27T07:59:58;102159.09;;;9.20;100.00
10806;BME280;5455;53.224;6.000;2023-04-27T08:02:26;102157.06;;;9.34;100.00
10806;BME280;5455;53.224;6.000;2023-04-27T08:04:56;102153.56;;;9.51;100.00
10806;BME280;5455;53.224;6.000;2023-04-27T08:07:24;102161.19;;;9.62;100.00
10806;BME280;5455;53.224;6.000;2023-04-27T08:09:51;102155.56;;;9.67;99.26
10806;BME280;5455;53.224;6.000;2023-04-27T08:12:18;102157.69;;;9.87;96.75
10806;BME280;5455;53.224;6.000;2023-04-27T08:14:46;102156.41;;;9.93;92.01
10806;BME280;5455;53.224;6.000;2023-04-27T08:17:13;102161.09;;;10.02;89.43
10806;BME280;5455;53.224;6.000;2023-04-27T08:19:41;102157.03;;;9.90;86.99
10806;BME280;5455;53.224;6.000;2023-04-27T08:22:08;102154.28;;;9.90;88.14
10806;BME280;5455;53.224;6.000;2023-04-27T08:24:35;102159.00;;;9.98;89.48
10806;BME280;5455;53.224;6.000;2023-04-27T08:27:05;102154.13;;;10.13;86.04
10806;BME280;5455;53.224;6.000;2023-04-27T08:29:32;102160.63;;;10.00;84.93
10806;BME280;5455;53.224;6.000;2023-04-27T08:32:01;102160.63;;;9.91;77.05
10806;BME280;5455;53.224;6.000;2023-04-27T08:34:29;102153.63;;;9.85;76.73
10806;BME280;5455;53.224;6.000;2023-04-27T08:36:56;102154.78;;;10.01;75.21
10806;BME280;5455;53.224;6.000;2023-04-27T08:39:24;102151.56;;;10.16;77.90
10806;BME280;5455;53.224;6.000;2023-04-27T08:41:51;102152.56;;;10.20;77.72
10806;BME280;5455;53.224;6.000;2023-04-27T08:44:19;102146.84;;;10.08;75.28
10806;BME280;5455;53.224;6.000;2023-04-27T08:46:46;102149.78;;;10.29;76.55
10806;BME280;5455;53.224;6.000;2023-04-27T08:49:14;102152.06;;;10.35;77.54
10806;BME280;5455;53.224;6.000;2023-04-27T08:51:43;102146.72;;;10.39;72.61
10806;BME280;5455;53.224;6.000;2023-04-27T08:54:10;102149.13;;;10.40;73.04
10806;BME280;5455;53.224;6.000;2023-04-27T08:56:37;102149.28;;;10.44;69.86
10806;BME280;5455;53.224;6.000;2023-04-27T08:59:15;102146.50;;;10.52;68.79
10806;BME280;5455;53.224;6.000;2023-04-27T09:01:47;102142.44;;;10.67;71.01
10806;BME280;5455;53.224;6.000;2023-04-27T09:04:15;102151.31;;;10.90;70.81
10806;BME280;5455;53.224;6.000;2023-04-27T09:06:44;102157.66;;;10.90;66.77
10806;BME280;5455;53.224;6.000;2023-04-27T09:09:21;102157.16;;;10.88;65.69
10806;BME280;5455;53.224;6.000;2023-04-27T09:11:49;102160.03;;;11.00;67.92
10806;BME280;5455;53.224;6.000;2023-04-27T09:14:20;102163.50;;;11.27;65.54
10806;BME280;5455;53.224;6.000;2023-04-27T09:16:55;102173.47;;;11.48;64.70
10806;BME280;5455;53.224;6.000;2023-04-27T09:19:27;102170.44;;;11.41;62.27
10806;BME280;5455;53.224;6.000;2023-04-27T09:22:08;102161.84;;;11.34;62.08
10806;BME280;5455;53.224;6.000;2023-04-27T09:24:37;102173.81;;;11.47;62.63
10806;BME280;5455;53.224;6.000;2023-04-27T09:27:05;102176.84;;;11.54;63.12
10806;BME280;5455;53.224;6.000;2023-04-27T09:29:37;102178.56;;;11.67;62.16
10806;BME280;5455;53.224;6.000;2023-04-27T09:32:17;102170.47;;;11.71;60.91
10806;BME280;5455;53.224;6.000;2023-04-27T09:34:46;102176.34;;;11.60;61.47
10806;BME280;5455;53.224;6.000;2023-04-27T09:37:14;102183.56;;;11.82;64.31
10806;BME280;5455;53.224;6.000;2023-04-27T09:39:41;102187.16;;;12.03;63.99
10806;BME280;5455;53.224;6.000;2023-04-27T09:42:10;102188.44;;;12.27;63.22
10806;BME280;5455;53.224;6.000;2023-04-27T09:44:38;102186.38;;;12.56;62.77
10806;BME280;5455;53.224;6.000;2023-04-27T09:47:06;102189.59;;;12.79;61.06
10806;BME280;5455;53.224;6.000;2023-04-27T09:49:33;102180.63;;;12.82;61.51
10806;BME280;5455;53.224;6.000;2023-04-27T09:52:01;102182.03;;;13.00;60.40
10806;BME280;5455;53.224;6.000;2023-04-27T09:54:30;102178.28;;;13.17;58.76
10806;BME280;5455;53.224;6.000;2023-04-27T10:08:14;102180.16;;;13.61;54.26
10806;BME280;5455;53.224;6.000;2023-04-27T10:10:46;102172.53;;;13.70;54.85
10806;BME280;5455;53.224;6.000;2023-04-27T10:13:24;102172.84;;;13.93;55.63
10806;BME280;5455;53.224;6.000;2023-04-27T10:15:52;102173.97;;;14.04;53.27
10806;BME280;5455;53.224;6.000;2023-04-27T10:18:28;102174.22;;;13.99;53.20
10806;BME280;5455;53.224;6.000;2023-04-27T10:20:56;102176.00;;;13.67;53.04
10806;BME280;5455;53.224;6.000;2023-04-27T10:23:44;102165.97;;;13.51;53.74
10806;BME280;5455;53.224;6.000;2023-04-27T10:26:11;102166.75;;;13.75;55.50
10806;BME280;5455;53.224;6.000;2023-04-27T10:28:38;102170.66;;;13.99;53.05
10806;BME280;5455;53.224;6.000;2023-04-27T10:31:09;102180.25;;;13.89;53.50
10806;BME280;5455;53.224;6.000;2023-04-27T10:33:41;102169.28;;;13.93;52.77
10806;BME280;5455;53.224;6.000;2023-04-27T10:36:13;102176.97;;;14.11;52.04
10806;BME280;5455;53.224;6.000;2023-04-27T10:38:41;102163.44;;;14.10;51.30
10806;BME280;5455;53.224;6.000;2023-04-27T10:41:13;102163.22;;;14.15;52.79
10806;BME280;5455;53.224;6.000;2023-04-27T10:43:40;102173.09;;;13.76;53.94
10806;BME280;5455;53.224;6.000;2023-04-27T10:46:13;102169.19;;;13.53;54.27
10806;BME280;5455;53.224;6.000;2023-04-27T10:48:41;102159.34;;;13.19;52.98
10806;BME280;5455;53.224;6.000;2023-04-27T10:51:14;102163.41;;;13.09;54.14
10806;BME280;5455;53.224;6.000;2023-04-27T10:53:41;102163.16;;;12.69;54.52
10806;BME280;5455;53.224;6.000;2023-04-27T10:56:09;102163.38;;;12.44;55.78
10806;BME280;5455;53.224;6.000;2023-04-27T10:58:37;102170.53;;;12.45;55.63
10806;BME280;5455;53.224;6.000;2023-04-27T11:01:07;102169.91;;;12.60;55.21
10806;BME280;5455;53.224;6.000;2023-04-27T11:03:35;102177.91;;;12.61;55.13
10806;BME280;5455;53.224;6.000;2023-04-27T11:06:04;102171.41;;;12.57;56.41
10806;BME280;5455;53.224;6.000;2023-04-27T11:08:32;102162.03;;;12.50;55.81
10806;BME280;5455;53.224;6.000;2023-04-27T11:11:02;102164.94;;;12.53;56.39
10806;BME280;5455;53.224;6.000;2023-04-27T11:13:32;102164.38;;;12.60;56.02
10806;BME280;5455;53.224;6.000;2023-04-27T11:15:59;102166.09;;;12.52;56.32
10806;BME280;5455;53.224;6.000;2023-04-27T11:18:30;102162.88;;;12.30;56.24
10806;BME280;5455;53.224;6.000;2023-04-27T11:23:33;102156.03;;;12.48;56.35
10806;BME280;5455;53.224;6.000;2023-04-27T11:26:14;102161.25;;;12.82;55.11
10806;BME280;5455;53.224;6.000;2023-04-27T11:28:43;102159.28;;;12.95;55.83
10806;BME280;5455;53.224;6.000;2023-04-27T11:31:10;102166.13;;;12.97;55.61
10806;BME280;5455;53.224;6.000;2023-04-27T11:33:38;102161.28;;;13.06;55.16
10806;BME280;5455;53.224;6.000;2023-04-27T11:36:15;102167.78;;;13.35;55.69
10806;BME280;5455;53.224;6.000;2023-04-27T11:38:43;102163.31;;;13.42;54.39
10806;BME280;5455;53.224;6.000;2023-04-27T11:41:10;102162.13;;;13.19;52.78
10806;BME280;5455;53.224;6.000;2023-04-27T11:43:41;102154.84;;;13.14;56.04
10806;BME280;5455;53.224;6.000;2023-04-27T11:46:09;102155.19;;;12.68;61.83
10806;BME280;5455;53.224;6.000;2023-04-27T11:48:38;102157.22;;;12.59;64.58
10806;BME280;5455;53.224;6.000;2023-04-27T11:51:08;102159.97;;;12.80;65.85
10806;BME280;5455;53.224;6.000;2023-04-27T11:53:39;102151.72;;;13.16;65.29
10806;BME280;5455;53.224;6.000;2023-04-27T11:56:09;102163.97;;;13.15;64.73
10806;BME280;5455;53.224;6.000;2023-04-27T11:58:37;102161.09;;;13.23;64.08
10806;BME280;5455;53.224;6.000;2023-04-27T12:01:06;102161.81;;;13.45;63.20
10806;BME280;5455;53.224;6.000;2023-04-27T12:03:33;102154.34;;;12.88;63.79
10806;BME280;5455;53.224;6.000;2023-04-27T12:06:01;102158.47;;;12.82;66.71
10806;BME280;5455;53.224;6.000;2023-04-27T12:08:31;102170.91;;;13.09;64.16
10806;BME280;5455;53.224;6.000;2023-04-27T12:10:58;102163.41;;;13.21;63.67
10806;BME280;5455;53.224;6.000;2023-04-27T12:13:25;102154.88;;;13.27;64.05
10806;BME280;5455;53.224;6.000;2023-04-27T12:15:53;102159.16;;;13.60;64.66
10806;BME280;5455;53.224;6.000;2023-04-27T12:18:20;102155.06;;;13.82;62.48
10806;BME280;5455;53.224;6.000;2023-04-27T12:20:47;102160.03;;;13.89;60.54
10806;BME280;5455;53.224;6.000;2023-04-27T12:23:14;102168.41;;;14.16;60.24
10806;BME280;5455;53.224;6.000;2023-04-27T12:25:41;102161.22;;;13.75;59.18
10806;BME280;5455;53.224;6.000;2023-04-27T12:28:10;102156.31;;;13.00;60.46
10806;BME280;5455;53.224;6.000;2023-04-27T12:30:38;102154.22;;;12.97;63.83
10806;BME280;5455;53.224;6.000;2023-04-27T12:33:05;102150.25;;;13.18;63.34
10806;BME280;5455;53.224;6.000;2023-04-27T12:35:36;102146.44;;;13.23;62.98
10806;BME280;5455;53.224;6.000;2023-04-27T12:38:03;102146.44;;;13.11;61.99
10806;BME280;5455;53.224;6.000;2023-04-27T12:40:32;102139.97;;;13.19;60.16
10806;BME280;5455;53.224;6.000;2023-04-27T12:42:59;102138.81;;;13.44;60.32
10806;BME280;5455;53.224;6.000;2023-04-27T12:45:27;102145.16;;;13.69;58.27
10806;BME280;5455;53.224;6.000;2023-04-27T12:47:54;102137.06;;;13.76;58.00
10806;BME280;5455;53.224;6.000;2023-04-27T12:50:31;102140.72;;;13.92;59.13
10806;BME280;5455;53.224;6.000;2023-04-27T12:52:58;102144.91;;;14.26;58.75
10806;BME280;5455;53.224;6.000;2023-04-27T12:55:26;102138.81;;;14.32;56.59
10806;BME280;5455;53.224;6.000;2023-04-27T12:58:01;102127.00;;;14.23;56.90
10806;BME280;5455;53.224;6.000;2023-04-27T13:00:28;102125.31;;;14.47;55.24
10806;BME280;5455;53.224;6.000;2023-04-27T13:02:55;102141.06;;;14.30;55.58
10806;BME280;5455;53.224;6.000;2023-04-27T13:05:23;102141.66;;;14.36;54.23
10806;BME280;5455;53.224;6.000;2023-04-27T13:07:51;102130.44;;;14.60;53.89
10806;BME280;5455;53.224;6.000;2023-04-27T13:10:18;102136.50;;;14.78;54.13
10806;BME280;5455;53.224;6.000;2023-04-27T13:12:46;102139.75;;;14.52;51.77
10806;BME280;5455;53.224;6.000;2023-04-27T13:15:13;102135.28;;;14.63;52.71
10806;BME280;5455;53.224;6.000;2023-04-27T13:17:40;102146.78;;;14.77;51.66
10806;BME280;5455;53.224;6.000;2023-04-27T13:20:10;102142.94;;;14.82;52.31